Time;durP1;ratioP1;P1;durP2;ratioP2;P2;SDS_P1;SDS_P2;PMS_P1;PMS_P2;Temp;Humidity;BMP_temperature;BMP_pressure;BME280_temperature;BME280_humidity;BME280_pressure;Samples;Min_cycle;Max_cycle;Signal;HPM_P1;HPM_P2
2022/07/14 00:00:29;177039.00;0.59;306.39;0.00;0.00;0.62;;;;;25.90;1.00;;;;;;2275082;61;1417;-84
2022/07/14 00:02:57;367684.00;1.23;634.26;0.00;0.00;0.62;;;;;25.90;1.00;;;;;;2274998;61;1923;-85
2022/07/14 00:05:24;217426.00;0.72;375.91;0.00;0.00;0.62;;;;;25.80;1.00;;;;;;2275095;61;1092;-85
2022/07/14 00:07:51;176569.00;0.59;305.58;0.00;0.00;0.62;;;;;25.70;1.00;;;;;;2275262;61;1088;-85
2022/07/14 00:10:18;138333.00;0.46;239.70;0.00;0.00;0.62;;;;;25.80;1.00;;;;;;2274976;61;1281;-84
2022/07/14 00:12:44;107520.00;0.36;186.55;0.00;0.00;0.62;;;;;25.90;1.00;;;;;;2275342;61;1153;-84
2022/07/14 00:15:12;319198.00;1.06;550.92;14825.00;0.05;26.31;;;;;26.00;1.00;;;;;;2275200;61;1130;-83
2022/07/14 00:17:39;451931.00;1.51;779.10;4877.00;0.02;9.07;;;;;25.80;1.00;;;;;;2275187;61;1141;-85
2022/07/14 00:20:08;480489.00;1.60;828.24;19475.00;0.06;34.36;;;;;25.70;1.00;;;;;;2276634;60;1372;-84
2022/07/14 00:22:35;640367.00;2.13;1103.97;24422.00;0.08;42.93;;;;;25.60;1.00;;;;;;2276615;60;1929;-84
2022/07/14 00:25:02;261036.00;0.87;450.93;0.00;0.00;0.62;;;;;25.40;1.00;;;;;;2276758;60;1101;-83
2022/07/14 00:27:29;199696.00;0.67;345.40;37074.00;0.12;64.83;;;;;25.20;1.00;;;;;;2276741;60;1137;-83
2022/07/14 00:29:56;309541.00;1.03;534.32;10328.00;0.03;18.52;;;;;25.20;1.00;;;;;;2276617;60;2150;-84
2022/07/14 00:32:23;318417.00;1.06;549.58;0.00;0.00;0.62;;;;;25.00;1.00;;;;;;2276627;60;1393;-84
2022/07/14 00:34:50;166407.00;0.55;288.08;0.00;0.00;0.62;;;;;24.90;1.00;;;;;;2276707;60;1144;-85
2022/07/14 00:37:18;420578.00;1.40;725.18;7281.00;0.02;13.24;;;;;24.70;1.00;;;;;;2276658;60;1044;-84
2022/07/14 00:39:58;454293.00;1.51;783.17;21675.00;0.07;38.17;;;;;24.80;1.00;;;;;;2275685;61;1116;-85
2022/07/14 00:42:30;0.00;0.00;0.62;0.00;0.00;0.62;;;;;24.70;1.00;;;;;;2275023;61;2014;-85
2022/07/14 00:44:57;0.00;0.00;0.62;0.00;0.00;0.62;;;;;24.90;1.00;;;;;;2275042;61;1140;-85
2022/07/14 00:47:24;245107.00;0.82;423.54;0.00;0.00;0.62;;;;;25.00;1.00;;;;;;2274773;61;1080;-82
2022/07/14 00:49:54;107828.00;0.36;187.08;0.00;0.00;0.62;;;;;25.10;1.00;;;;;;2275003;61;1152;-83
2022/07/14 00:52:23;60646.00;0.20;105.59;0.00;0.00;0.62;;;;;24.90;1.00;;;;;;2275011;61;1259;-84
2022/07/14 00:54:50;219334.00;0.73;379.20;0.00;0.00;0.62;;;;;24.70;1.00;;;;;;2275074;61;1175;-83
2022/07/14 00:57:18;297915.00;0.99;514.34;3836.00;0.01;7.27;;;;;24.60;1.00;;;;;;2275161;61;1104;-85
2022/07/14 00:59:45;246135.00;0.82;425.30;0.00;0.00;0.62;;;;;24.50;1.00;;;;;;2274866;61;1162;-84
2022/07/14 01:02:12;368011.00;1.23;634.82;0.00;0.00;0.62;;;;;24.50;1.00;;;;;;2275368;61;1933;-85
2022/07/14 01:04:39;497020.00;1.66;856.69;28168.00;0.09;49.41;;;;;24.50;1.00;;;;;;2274944;61;1167;-85
2022/07/14 01:07:06;167887.00;0.56;290.63;0.00;0.00;0.62;;;;;24.50;1.00;;;;;;2276014;60;1648;-85
2022/07/14 01:09:34;197308.00;0.66;341.29;0.00;0.00;0.62;;;;;24.40;1.00;;;;;;2275232;61;1642;-85
2022/07/14 01:12:02;1043782.00;3.48;1810.17;53351.00;0.18;92.98;;;;;24.30;1.00;;;;;;2275268;61;1309;-86
2022/07/14 01:14:29;753858.00;2.51;1300.77;39529.00;0.13;69.07;;;;;24.30;1.00;;;;;;2275001;61;1259;-85
2022/07/14 01:16:56;285284.00;0.95;492.62;14720.00;0.05;26.13;;;;;24.00;1.00;;;;;;2274590;61;1090;-85
2022/07/14 01:19:23;668731.00;2.23;1153.06;40400.00;0.13;70.58;;;;;23.70;1.00;;;;;;2274956;61;1168;-85
2022/07/14 01:21:53;539947.00;1.80;930.63;41851.00;0.14;73.09;;;;;23.40;1.00;;;;;;2274531;61;2012;-84
2022/07/14 01:24:20;104356.00;0.35;181.09;0.00;0.00;0.62;;;;;23.30;1.00;;;;;;2274490;61;1119;-85
2022/07/14 01:26:46;94749.00;0.32;164.51;0.00;0.00;0.62;;;;;23.40;1.00;;;;;;2274961;61;1183;-84
2022/07/14 01:29:13;117335168.00;391.12;65435360.00;116841216.00;389.47;64611720.00;;;;;23.60;1.00;;;;;;2274552;61;1116;-85
2022/07/14 01:31:40;468340.00;1.56;807.33;31705.00;0.11;55.53;;;;;23.80;1.00;;;;;;2274646;61;1265;-84
2022/07/14 01:34:07;427533.00;1.43;737.14;3615.00;0.01;6.89;;;;;24.00;1.00;;;;;;2274836;61;1117;-85
2022/07/14 01:36:35;679270.00;2.26;1171.31;94180.00;0.31;163.52;;;;;24.10;1.00;;;;;;2274863;61;1073;-85
2022/07/14 01:39:05;397107.00;1.32;684.83;16106.00;0.05;28.53;;;;;24.20;1.00;;;;;;2275037;61;1123;-86
2022/07/14 01:41:32;383097.00;1.28;660.75;20147.00;0.07;35.52;;;;;24.10;1.00;;;;;;2275112;61;1709;-83
2022/07/14 01:43:59;480070.00;1.60;827.52;0.00;0.00;0.62;;;;;24.10;1.00;;;;;;2275665;61;1935;-84
2022/07/14 01:46:26;550590.00;1.84;948.98;89051.00;0.30;154.67;;;;;23.80;1.00;;;;;;2276396;60;1031;-86
2022/07/14 01:48:53;319537.00;1.07;551.50;71480.00;0.24;124.32;;;;;23.30;1.00;;;;;;2276453;60;1092;-87
2022/07/14 01:51:20;354340.00;1.18;611.32;72748.00;0.24;126.51;;;;;23.10;1.00;;;;;;2276417;60;1354;-86
2022/07/14 01:53:47;297820.00;0.99;514.17;65755.00;0.22;114.42;;;;;23.00;1.00;;;;;;2276203;60;1090;-87
2022/07/14 01:56:15;451767.00;1.51;778.82;72983.00;0.24;126.91;;;;;23.00;1.00;;;;;;2276191;60;1103;-85
2022/07/14 01:58:42;708450.00;2.36;1221.89;123351.00;0.41;213.86;;;;;23.10;1.00;;;;;;2276002;61;1108;-87
2022/07/14 02:03:58;245029.00;0.82;423.40;0.00;0.00;0.62;;;;;23.30;1.00;;;;;;2276025;61;1944;-85
2022/07/14 02:06:25;285756.00;0.95;493.43;76864.00;0.26;133.62;;;;;23.40;1.00;;;;;;2276153;60;1186;-84
2022/07/14 02:08:52;535693.00;1.79;923.30;81820.00;0.27;142.18;;;;;23.40;1.00;;;;;;2276317;60;1112;-85
2022/07/14 02:14:05;0.00;0.00;0.62;0.00;0.00;0.62;;;;;23.00;1.00;;;;;;2276423;60;641;-86
2022/07/14 02:16:32;177524.00;0.59;307.23;0.00;0.00;0.62;;;;;23.20;1.00;;;;;;2275924;61;1073;-86
2022/07/14 02:18:59;289725.00;0.97;500.26;0.00;0.00;0.62;;;;;23.50;1.00;;;;;;2276323;60;1043;-85
2022/07/14 02:21:26;575647.00;1.92;992.19;40222.00;0.13;70.27;;;;;23.60;1.00;;;;;;2275506;61;1387;-86
2022/07/14 02:23:54;460013.00;1.53;793.01;0.00;0.00;0.62;;;;;23.60;1.00;;;;;;2275960;61;2013;-85
2022/07/14 02:26:23;285712.00;0.95;493.36;0.00;0.00;0.62;;;;;23.20;1.00;;;;;;2275626;61;1092;-86
2022/07/14 02:28:50;318818.00;1.06;550.27;0.00;0.00;0.62;;;;;23.30;1.00;;;;;;2276524;61;1180;-85
2022/07/14 02:31:17;94592.00;0.32;164.24;0.00;0.00;0.62;;;;;23.50;1.00;;;;;;2276412;60;1378;-86
2022/07/14 02:33:45;351097.00;1.17;605.75;0.00;0.00;0.62;;;;;23.40;1.00;;;;;;2277077;60;1105;-85
2022/07/14 02:36:13;183568.00;0.61;317.63;0.00;0.00;0.62;;;;;23.50;1.00;;;;;;2277063;60;1246;-86
2022/07/14 02:38:40;259140.00;0.86;447.67;0.00;0.00;0.62;;;;;23.40;1.00;;;;;;2276551;60;1174;-85
2022/07/14 02:41:07;170805.00;0.57;295.65;0.00;0.00;0.62;;;;;23.30;1.00;;;;;;2276366;61;1417;-85
2022/07/14 02:43:36;173175.00;0.58;299.74;0.00;0.00;0.62;;;;;23.20;1.00;;;;;;2276328;61;1917;-85
2022/07/14 02:46:04;291368.00;0.97;503.08;37550.00;0.13;65.65;;;;;23.20;1.00;;;;;;2276437;61;1149;-86
2022/07/14 02:48:31;153858.00;0.51;266.46;0.00;0.00;0.62;;;;;23.10;1.00;;;;;;2276726;61;1123;-86
2022/07/14 02:51:03;43694.00;0.15;76.28;0.00;0.00;0.62;;;;;23.00;1.00;;;;;;2276996;60;1267;-85
2022/07/14 02:53:30;127881.00;0.43;221.68;0.00;0.00;0.62;;;;;22.90;1.00;;;;;;2276920;60;1211;-84
2022/07/14 02:55:57;88484.00;0.29;153.69;0.00;0.00;0.62;;;;;22.80;1.00;;;;;;2276618;60;978;-85
2022/07/14 02:58:25;377815.00;1.26;651.67;0.00;0.00;0.62;;;;;22.80;1.00;;;;;;2276839;60;1139;-84
2022/07/14 03:00:54;324783.00;1.08;560.52;18299.00;0.06;32.32;;;;;22.80;1.00;;;;;;2276668;60;1329;-86
2022/07/14 03:03:21;256364.00;0.85;442.90;0.00;0.00;0.62;;;;;22.90;1.00;;;;;;2276371;61;1996;-86
2022/07/14 03:05:48;152521.00;0.51;264.15;0.00;0.00;0.62;;;;;22.90;1.00;;;;;;2276184;61;1172;-84
2022/07/14 03:08:15;154158.00;0.51;266.97;0.00;0.00;0.62;;;;;23.00;1.00;;;;;;2276277;61;1144;-85
2022/07/14 03:10:43;266470.00;0.89;460.27;0.00;0.00;0.62;;;;;22.80;1.00;;;;;;2276255;60;1416;-85
2022/07/14 03:13:10;134695.00;0.45;233.42;0.00;0.00;0.62;;;;;22.70;1.00;;;;;;2276074;61;1107;-87
2022/07/14 03:15:38;538170.00;1.79;927.57;142561.00;0.48;246.99;;;;;22.30;1.00;;;;;;2276215;61;1056;-85
2022/07/14 03:18:06;285577.00;0.95;493.13;7376.00;0.02;13.40;;;;;22.40;1.00;;;;;;2276339;60;1143;-86
2022/07/14 03:20:33;130140.00;0.43;225.57;0.00;0.00;0.62;;;;;22.50;1.00;;;;;;2276310;61;1352;-86
2022/07/14 03:23:00;183626.00;0.61;317.73;0.00;0.00;0.62;;;;;22.60;1.00;;;;;;2276261;61;1996;-86
2022/07/14 03:25:27;129243.00;0.43;224.02;32224.00;0.11;56.43;;;;;22.40;1.00;;;;;;2276025;61;1118;-84
2022/07/14 03:27:54;165239.00;0.55;286.07;0.00;0.00;0.62;;;;;22.10;1.00;;;;;;2276492;60;1152;-85
2022/07/14 03:30:21;58158.00;0.19;101.29;0.00;0.00;0.62;;;;;21.90;1.00;;;;;;2276322;60;1601;-85
2022/07/14 03:32:48;305451.00;1.02;527.29;0.00;0.00;0.62;;;;;21.50;1.00;;;;;;2276611;60;1122;-86
2022/07/14 03:35:16;160596.00;0.54;278.07;0.00;0.00;0.62;;;;;21.50;1.00;;;;;;2276346;61;1039;-86
2022/07/14 03:37:43;194041.00;0.65;335.67;0.00;0.00;0.62;;;;;21.30;1.00;;;;;;2275997;60;1144;-85
2022/07/14 03:40:12;140897.00;0.47;244.12;0.00;0.00;0.62;;;;;21.20;1.00;;;;;;2276196;60;1294;-83
2022/07/14 03:42:39;165981.00;0.55;287.34;0.00;0.00;0.62;;;;;21.10;1.00;;;;;;2276041;60;1943;-85
2022/07/14 03:45:06;194725.00;0.65;336.84;0.00;0.00;0.62;;;;;21.00;1.00;;;;;;2276086;61;1106;-85
2022/07/14 03:47:33;152888.00;0.51;264.78;0.00;0.00;0.62;;;;;20.90;1.00;;;;;;2275925;61;1096;-86
2022/07/14 03:50:00;231421.00;0.77;399.99;0.00;0.00;0.62;;;;;20.90;1.00;;;;;;2276259;61;1104;-85
2022/07/14 03:52:28;196142.00;0.65;339.28;0.00;0.00;0.62;;;;;20.80;1.00;;;;;;2276336;60;1431;-84
2022/07/14 03:54:55;167240.00;0.56;289.51;0.00;0.00;0.62;;;;;20.90;1.00;;;;;;2276230;61;1197;-86
2022/07/14 03:57:23;160434.00;0.53;277.79;0.00;0.00;0.62;;;;;20.90;1.00;;;;;;2276292;61;1163;-86
2022/07/14 03:59:49;803550.00;2.68;1387.32;227615.00;0.76;393.45;;;;;21.10;1.00;;;;;;2276191;61;1417;-85
2022/07/14 04:02:16;751390.00;2.50;1296.47;61684.00;0.21;107.39;;;;;21.30;1.00;;;;;;2276086;61;1316;-86
2022/07/14 04:04:43;328436.00;1.09;566.80;0.00;0.00;0.62;;;;;21.50;1.00;;;;;;2276177;61;1938;-86
2022/07/14 04:07:10;432354.00;1.44;745.43;7450.00;0.02;13.53;;;;;21.80;1.00;;;;;;2276305;60;1050;-85
2022/07/14 04:09:38;320411.00;1.07;553.00;0.00;0.00;0.62;;;;;21.90;1.00;;;;;;2276289;61;1106;-85
2022/07/14 04:12:06;305340.00;1.02;527.10;0.00;0.00;0.62;;;;;22.00;1.00;;;;;;2276252;61;1391;-85
2022/07/14 04:14:33;174506.00;0.58;302.03;6786.00;0.02;12.38;;;;;21.90;1.00;;;;;;2276136;61;1122;-86
2022/07/14 04:17:00;349222.00;1.16;602.52;26048.00;0.09;45.74;;;;;22.00;1.00;;;;;;2276172;61;1071;-84
2022/07/14 04:19:27;274608.00;0.92;474.27;0.00;0.00;0.62;;;;;21.90;1.00;;;;;;2276774;60;1128;-87
2022/07/14 04:21:53;227781.00;0.76;393.73;0.00;0.00;0.62;;;;;21.90;1.00;;;;;;2276688;60;1419;-86
2022/07/14 04:24:20;268151.00;0.89;463.16;0.00;0.00;0.62;;;;;22.10;1.00;;;;;;2276693;60;2007;-85
2022/07/14 04:26:49;338574.00;1.13;584.22;0.00;0.00;0.62;;;;;22.20;1.00;;;;;;2276756;60;1098;-86
2022/07/14 04:29:15;424514.00;1.42;731.95;40806.00;0.14;71.28;;;;;22.40;1.00;;;;;;2276703;60;1068;-86
2022/07/14 04:31:42;324893.00;1.08;560.71;11073.00;0.04;19.81;;;;;22.40;1.00;;;;;;2276634;60;1614;-84
2022/07/14 04:34:10;604825.00;2.02;1042.55;87869.00;0.29;152.63;;;;;22.70;1.00;;;;;;2276690;60;1119;-85
2022/07/14 04:36:37;840402.00;2.80;1451.68;122748.00;0.41;212.82;;;;;22.80;1.00;;;;;;2276642;60;1059;-85
2022/07/14 04:39:06;627900.00;2.09;1082.42;57171.00;0.19;99.59;;;;;23.00;1.00;;;;;;2276516;60;1127;-86
2022/07/14 04:41:36;459232.00;1.53;791.66;130765.00;0.44;226.65;;;;;23.30;1.00;;;;;;2276547;60;1810;-85
2022/07/14 04:44:05;113644.00;0.38;197.12;0.00;0.00;0.62;;;;;23.30;1.00;;;;;;2276618;60;1996;-85
2022/07/14 04:46:32;144576.00;0.48;250.46;0.00;0.00;0.62;;;;;23.30;1.00;;;;;;2276519;60;1103;-85
2022/07/14 04:54:27;65471.00;0.22;113.93;0.00;0.00;0.62;;;;;24.10;1.00;;;;;;2276580;60;749;-86
2022/07/14 04:56:54;142510.00;0.48;246.90;0.00;0.00;0.62;;;;;24.30;1.00;;;;;;2276604;60;1163;-86
2022/07/14 04:59:22;100516.00;0.34;174.46;0.00;0.00;0.62;;;;;24.60;1.00;;;;;;2276493;60;1035;-86
2022/07/14 05:01:49;434322.00;1.45;748.82;0.00;0.00;0.62;;;;;24.50;1.00;;;;;;2276539;60;1332;-86
2022/07/14 05:04:16;158862.00;0.53;275.08;0.00;0.00;0.62;;;;;24.60;1.00;;;;;;2276402;60;1997;-85
2022/07/14 05:06:45;93614.00;0.31;162.55;0.00;0.00;0.62;;;;;24.60;1.00;;;;;;2276543;60;1174;-86
2022/07/14 05:09:13;260064.00;0.87;449.26;0.00;0.00;0.62;;;;;24.80;1.00;;;;;;2276584;60;2221;-85
2022/07/14 05:11:41;233517.00;0.78;403.60;0.00;0.00;0.62;;;;;24.90;1.00;;;;;;2275846;60;1541;-86
2022/07/14 05:14:08;293400.00;0.98;506.57;23911.00;0.08;42.04;;;;;24.90;1.00;;;;;;2276515;60;1054;-86
2022/07/14 05:16:36;310972.00;1.04;536.78;0.00;0.00;0.62;;;;;24.90;1.00;;;;;;2276541;60;1380;-85
2022/07/14 05:19:03;240942.00;0.80;416.37;23461.00;0.08;41.26;;;;;24.90;1.00;;;;;;2276574;60;1077;-86
2022/07/14 05:21:30;215383.00;0.72;372.40;0.00;0.00;0.62;;;;;24.60;1.00;;;;;;2276462;60;1458;-85
2022/07/14 05:23:57;120982.00;0.40;209.78;0.00;0.00;0.62;;;;;24.60;1.00;;;;;;2276490;60;1984;-86
2022/07/14 05:26:25;421076.00;1.40;726.04;36967.00;0.12;64.64;;;;;24.50;1.00;;;;;;2276544;60;1699;-86
2022/07/14 05:28:52;413002.00;1.38;712.16;55444.00;0.18;96.60;;;;;24.60;1.00;;;;;;2276396;60;1104;-85
2022/07/14 05:31:19;278464.00;0.93;480.90;0.00;0.00;0.62;;;;;24.80;1.00;;;;;;2276382;60;1344;-86
2022/07/14 05:33:47;378963.00;1.26;653.64;0.00;0.00;0.62;;;;;25.00;1.00;;;;;;2276334;60;1126;-85
2022/07/14 05:36:14;71826.00;0.24;124.92;0.00;0.00;0.62;;;;;25.20;1.00;;;;;;2276461;60;1063;-86
2022/07/14 05:38:42;254091.00;0.85;438.99;0.00;0.00;0.62;;;;;25.30;1.00;;;;;;2276344;60;1672;-86
2022/07/14 05:41:09;429206.00;1.43;740.02;48120.00;0.16;83.93;;;;;25.10;1.00;;;;;;2276400;60;1403;-85
2022/07/14 05:43:36;292981.00;0.98;505.85;0.00;0.00;0.62;;;;;25.00;1.00;;;;;;2276404;60;1998;-84
2022/07/14 05:46:07;362136.00;1.21;624.72;30085.00;0.10;52.73;;;;;25.10;1.00;;;;;;2276342;60;1131;-86
2022/07/14 05:48:34;652103.00;2.17;1124.27;5681.00;0.02;10.47;;;;;26.20;1.00;;;;;;2276463;60;1096;-87
2022/07/14 05:51:07;534177.00;1.78;920.69;61557.00;0.21;107.17;;;;;28.20;1.00;;;;;;2276416;60;1390;-87
2022/07/14 05:53:35;53522.00;0.18;93.28;0.00;0.00;0.62;;;;;30.10;1.00;;;;;;2276335;60;1031;-85
2022/07/14 05:56:02;674165.00;2.25;1162.47;89437.00;0.30;155.34;;;;;31.50;1.00;;;;;;2276441;60;984;-85
2022/07/14 05:58:29;260924.00;0.87;450.74;0.00;0.00;0.62;;;;;32.70;1.00;;;;;;2276221;60;1119;-85
2022/07/14 06:00:56;176262.00;0.59;305.05;0.00;0.00;0.62;;;;;34.10;1.00;;;;;;2275933;61;1269;-86
2022/07/14 06:03:23;20665.00;0.07;36.42;0.00;0.00;0.62;;;;;35.50;1.00;;;;;;2275540;61;2002;-86
2022/07/14 06:05:50;122460.00;0.41;212.33;0.00;0.00;0.62;;;;;35.80;1.00;;;;;;2276157;60;1108;-86
2022/07/14 06:08:20;99728.00;0.33;173.10;0.00;0.00;0.62;;;;;36.50;1.00;;;;;;2275878;60;1185;-86
2022/07/14 06:10:46;72844.00;0.24;126.67;0.00;0.00;0.62;;;;;37.70;1.00;;;;;;2275468;61;1284;-86
2022/07/14 06:13:13;140921.00;0.47;244.16;0.00;0.00;0.62;;;;;37.60;1.00;;;;;;2275534;61;1089;-86
2022/07/14 06:15:40;137181.00;0.46;237.71;0.00;0.00;0.62;;;;;38.00;1.00;;;;;;2275694;61;1077;-86
2022/07/14 06:18:09;71979.00;0.24;125.18;0.00;0.00;0.62;;;;;38.90;1.00;;;;;;2276188;60;1131;-84
2022/07/14 06:20:36;39052.00;0.13;68.25;0.00;0.00;0.62;;;;;39.30;1.00;;;;;;2275635;61;1372;-86
2022/07/14 06:23:03;82080.00;0.27;142.63;0.00;0.00;0.62;;;;;39.10;1.00;;;;;;2275660;61;1022;-86
2022/07/14 06:25:31;41415.00;0.14;72.34;0.00;0.00;0.62;;;;;39.00;1.00;;;;;;2275868;61;2018;-87
2022/07/14 06:27:58;68346.00;0.23;118.90;0.00;0.00;0.62;;;;;39.20;1.00;;;;;;2275555;60;1124;-86
2022/07/14 06:30:25;158095.00;0.53;273.76;0.00;0.00;0.62;;;;;38.60;1.00;;;;;;2275292;61;1256;-86
2022/07/14 06:32:52;137771.00;0.46;238.73;0.00;0.00;0.62;;;;;39.00;1.00;;;;;;2274532;61;1206;-86
2022/07/14 06:35:19;328425.00;1.09;566.78;15860.00;0.05;28.10;;;;;39.80;1.00;;;;;;2273661;61;1164;-86
2022/07/14 06:37:46;296701.00;0.99;512.25;16905.00;0.06;29.91;;;;;40.30;1.00;;;;;;2274877;61;1076;-86
2022/07/14 06:40:13;180680.00;0.60;312.66;0.00;0.00;0.62;;;;;41.00;1.00;;;;;;2275578;61;1271;-85
2022/07/14 06:42:41;77668.00;0.26;135.01;0.00;0.00;0.62;;;;;40.80;1.00;;;;;;2275637;60;1194;-85
2022/07/14 06:45:09;189368.00;0.63;327.62;0.00;0.00;0.62;;;;;40.50;1.00;;;;;;2275883;60;1943;-85
2022/07/14 06:47:36;202801.00;0.68;350.74;0.00;0.00;0.62;;;;;40.00;1.00;;;;;;2276055;60;1064;-84
2022/07/14 06:50:04;220524.00;0.74;381.25;0.00;0.00;0.62;;;;;39.30;1.00;;;;;;2276261;60;1129;-85
2022/07/14 06:52:32;199610.00;0.67;345.25;0.00;0.00;0.62;;;;;39.20;1.00;;;;;;2276289;60;1165;-86
2022/07/14 06:54:59;105245.00;0.35;182.62;0.00;0.00;0.62;;;;;38.50;1.00;;;;;;2275396;61;1117;-85
2022/07/14 06:57:26;697524.00;2.33;1202.95;136747.00;0.46;236.96;;;;;38.00;1.00;;;;;;2275659;61;1120;-86
2022/07/14 06:59:55;293080.00;0.98;506.02;14248.00;0.05;25.31;;;;;38.20;1.00;;;;;;2275378;61;1178;-86
2022/07/14 07:02:22;480775.00;1.60;828.73;32994.00;0.11;57.77;;;;;38.20;1.00;;;;;;2274829;61;1368;-85
2022/07/14 07:06:43;158947.00;0.53;275.23;0.00;0.00;0.62;;;;;38.40;1.00;;;;;;2275078;61;2010;-86
2022/07/14 07:07:36;0.00;0.00;0.62;0.00;0.00;0.62;;;;;38.90;1.00;;;;;;2275088;61;1273;-85
2022/07/14 07:10:04;474357.00;1.58;817.69;165298.00;0.55;286.17;;;;;38.90;1.00;;;;;;2275350;61;1111;-85
2022/07/14 07:12:31;98966.00;0.33;171.79;0.00;0.00;0.62;;;;;39.40;1.00;;;;;;2275400;61;1139;-85
2022/07/14 07:14:59;221294.00;0.74;382.57;0.00;0.00;0.62;;;;;39.60;1.00;;;;;;2275925;61;1115;-86
2022/07/14 07:17:26;201767.00;0.67;348.97;0.00;0.00;0.62;;;;;40.10;1.00;;;;;;2275393;61;1124;-86
2022/07/14 07:19:53;47908.00;0.16;83.57;0.00;0.00;0.62;;;;;40.10;1.00;;;;;;2275487;61;1142;-85
2022/07/14 07:22:20;45942.00;0.15;80.17;0.00;0.00;0.62;;;;;40.00;1.00;;;;;;2276093;61;1359;-83
2022/07/14 07:24:46;52234.00;0.17;91.05;0.00;0.00;0.62;;;;;40.00;1.00;;;;;;2276106;61;1920;-85
2022/07/14 07:27:13;0.00;0.00;0.62;0.00;0.00;0.62;;;;;39.70;1.00;;;;;;2277031;60;1021;-86
2022/07/14 07:29:40;264253.00;0.88;456.46;70244.00;0.23;122.18;;;;;40.00;1.00;;;;;;2277003;60;1081;-86
2022/07/14 07:32:08;396765.00;1.32;684.24;71877.00;0.24;125.00;;;;;40.00;1.00;;;;;;2276756;60;1383;-86
2022/07/14 07:34:36;305585.00;1.02;527.52;57388.00;0.19;99.96;;;;;40.00;1.00;;;;;;2276267;61;1121;-85
2022/07/14 07:37:03;239038.00;0.80;413.10;0.00;0.00;0.62;;;;;40.00;1.00;;;;;;2276348;60;1219;-86
2022/07/14 07:39:31;567342.00;1.89;977.86;145689.00;0.49;252.38;;;;;40.20;1.00;;;;;;2276250;61;1281;-85
2022/07/14 07:42:00;134808.00;0.45;233.62;0.00;0.00;0.62;;;;;40.60;1.00;;;;;;2276798;60;1257;-86
2022/07/14 07:44:29;221801.00;0.74;383.44;0.00;0.00;0.62;;;;;41.10;1.00;;;;;;2275937;61;2057;-86
2022/07/14 07:46:56;229266.00;0.76;396.29;5754.00;0.02;10.59;;;;;41.70;1.00;;;;;;2276036;61;1135;-85
2022/07/14 07:49:24;235945.00;0.79;407.78;21877.00;0.07;38.52;;;;;42.20;1.00;;;;;;2275771;61;1049;-86
2022/07/14 07:51:56;135646.00;0.45;235.06;0.00;0.00;0.62;;;;;42.40;1.00;;;;;;2276446;60;1321;-86
2022/07/14 07:54:23;275826.00;0.92;476.36;0.00;0.00;0.62;;;;;41.90;1.00;;;;;;2276137;61;1065;-86
2022/07/14 07:56:50;239181.00;0.80;413.34;0.00;0.00;0.62;;;;;41.70;1.00;;;;;;2275993;60;1155;-84
2022/07/14 07:59:17;327762.00;1.09;565.64;27140.00;0.09;47.63;;;;;41.70;1.00;;;;;;2276159;61;1058;-86
2022/07/14 08:01:44;137889.00;0.46;238.93;0.00;0.00;0.62;;;;;40.70;1.00;;;;;;2276316;61;1396;-86
2022/07/14 08:04:11;218308.00;0.73;377.43;17123.00;0.06;30.29;;;;;39.60;1.00;;;;;;2275403;61;2006;-86
2022/07/14 08:06:39;173316.00;0.58;299.98;0.00;0.00;0.62;;;;;39.70;1.00;;;;;;2273354;61;1017;-84
2022/07/14 08:09:11;134811.00;0.45;233.62;0.00;0.00;0.62;;;;;39.40;1.00;;;;;;2273627;61;1126;-85
2022/07/14 08:11:38;278980.00;0.93;481.78;0.00;0.00;0.62;;;;;39.60;1.00;;;;;;2273947;61;1471;-85
2022/07/14 08:14:05;546410.00;1.82;941.77;0.00;0.00;0.62;;;;;41.00;1.00;;;;;;2273633;61;1106;-84
2022/07/14 08:16:34;472058.00;1.57;813.73;15080.00;0.05;26.75;;;;;41.50;1.00;;;;;;2272765;61;1345;-85
2022/07/14 08:19:01;310588.00;1.04;536.12;52464.00;0.17;91.45;;;;;41.60;1.00;;;;;;2272913;61;1743;-84
2022/07/14 08:21:28;404394.00;1.35;697.36;65989.00;0.22;114.83;;;;;41.20;1.00;;;;;;2272673;61;1364;-84
2022/07/14 08:23:57;342311.00;1.14;590.65;86311.00;0.29;149.94;;;;;40.30;1.00;;;;;;2272735;61;2103;-85
2022/07/14 08:26:24;292885.00;0.98;505.69;72700.00;0.24;126.43;;;;;40.00;1.00;;;;;;2272207;61;1065;-85
2022/07/14 08:28:51;396218.00;1.32;683.30;56434.00;0.19;98.31;;;;;40.50;1.00;;;;;;2271881;61;1707;-84
2022/07/14 08:31:18;427923.00;1.43;737.81;50783.00;0.17;88.54;;;;;40.90;1.00;;;;;;2271678;61;1274;-84
2022/07/14 08:33:45;449491.00;1.50;774.91;54344.00;0.18;94.70;;;;;41.40;1.00;;;;;;2271751;61;1110;-83
2022/07/14 08:36:13;447934.00;1.49;772.23;54507.00;0.18;94.98;;;;;41.70;1.00;;;;;;2273421;61;1153;-87
2022/07/14 08:38:40;404156.00;1.35;696.95;56522.00;0.19;98.46;;;;;41.70;1.00;;;;;;2273080;61;1744;-86
2022/07/14 08:41:10;278143.00;0.93;480.34;51226.00;0.17;89.31;;;;;41.20;1.00;;;;;;2272790;61;1445;-86
2022/07/14 08:43:38;199330.00;0.66;344.77;48179.00;0.16;84.04;;;;;41.00;1.00;;;;;;2273205;61;1139;-85
2022/07/14 08:46:05;292479.00;0.97;504.99;46493.00;0.15;81.12;;;;;41.00;1.00;;;;;;2273219;61;1940;-85
2022/07/14 08:48:33;235866.00;0.79;407.64;56149.00;0.19;97.82;;;;;40.80;1.00;;;;;;2273708;61;1193;-84
2022/07/14 08:51:01;361013.00;1.20;622.79;53704.00;0.18;93.59;;;;;40.50;1.00;;;;;;2274421;61;1372;-85
2022/07/14 08:53:28;398585.00;1.33;687.37;67372.00;0.22;117.22;;;;;39.80;1.00;;;;;;2274434;61;1144;-84
2022/07/14 08:55:55;275639.00;0.92;476.04;54527.00;0.18;95.01;;;;;39.20;1.00;;;;;;2273886;61;1127;-85
2022/07/14 08:58:23;315935.00;1.05;545.31;66467.00;0.22;115.65;;;;;39.30;1.00;;;;;;2274032;61;1784;-86
2022/07/14 09:00:50;216827.00;0.72;374.88;49348.00;0.16;86.06;;;;;39.60;1.00;;;;;;2274026;61;1286;-85
2022/07/14 09:03:18;458058.00;1.53;789.64;149949.00;0.50;259.72;;;;;39.50;1.00;;;;;;2274974;60;1204;-87
2022/07/14 09:05:46;220699.00;0.74;381.55;59302.00;0.20;103.27;;;;;39.50;1.00;;;;;;2275648;60;1919;-85
2022/07/14 09:08:15;440412.00;1.47;759.29;57124.00;0.19;99.50;;;;;39.10;1.00;;;;;;2274563;61;1621;-85
2022/07/14 09:10:44;443210.00;1.48;764.10;0.00;0.00;0.62;;;;;39.20;1.00;;;;;;2274351;61;1273;-85
2022/07/14 09:13:12;0.00;0.00;0.62;0.00;0.00;0.62;;;;;39.40;1.00;;;;;;2273240;61;1179;-85
2022/07/14 09:15:47;148292.00;0.49;256.86;0.00;0.00;0.62;;;;;39.90;1.00;;;;;;2272855;61;1151;-86
2022/07/14 09:18:21;125756.00;0.42;218.01;0.00;0.00;0.62;;;;;40.30;1.00;;;;;;2273253;61;1110;-86
2022/07/14 09:20:49;136835.00;0.46;237.11;0.00;0.00;0.62;;;;;40.10;1.00;;;;;;2274186;61;1372;-85
2022/07/14 09:23:16;182828.00;0.61;316.36;0.00;0.00;0.62;;;;;40.10;1.00;;;;;;2273239;61;1309;-86
2022/07/14 09:25:43;145761.00;0.49;252.50;0.00;0.00;0.62;;;;;39.90;1.00;;;;;;2273035;61;1921;-85
2022/07/14 09:28:10;123674.00;0.41;214.42;13130.00;0.04;23.37;;;;;39.10;1.00;;;;;;2273716;61;1088;-84
2022/07/14 09:30:37;0.00;0.00;0.62;0.00;0.00;0.62;;;;;38.80;1.00;;;;;;2274294;61;1256;-85
2022/07/14 09:33:05;186799.00;0.62;323.20;23027.00;0.08;40.51;;;;;38.80;1.00;;;;;;2275247;61;1060;-84
2022/07/14 09:35:41;0.00;0.00;0.62;0.00;0.00;0.62;;;;;38.70;1.00;;;;;;2274766;61;1097;-85
2022/07/14 09:38:18;13209.00;0.04;23.51;0.00;0.00;0.62;;;;;38.50;1.00;;;;;;2274813;61;1135;-84
2022/07/14 09:40:46;291031.00;0.97;502.50;35700.00;0.12;62.45;;;;;38.30;1.00;;;;;;2274759;61;1308;-86
2022/07/14 09:43:14;0.00;0.00;0.62;0.00;0.00;0.62;;;;;38.00;1.00;;;;;;2275217;61;1474;-86
2022/07/14 09:48:16;1081533.00;3.61;1877.43;24331.00;0.08;42.77;;;;;37.80;1.00;;;;;;2270108;61;1312;-85
2022/07/14 09:50:48;65827.00;0.22;114.55;0.00;0.00;0.62;;;;;37.80;1.00;;;;;;2268116;61;1364;-86
2022/07/14 09:53:24;125206.00;0.42;217.06;0.00;0.00;0.62;;;;;37.60;1.00;;;;;;2268327;61;1550;-83
2022/07/14 09:55:56;60568.00;0.20;105.46;0.00;0.00;0.62;;;;;37.50;1.00;;;;;;2268308;61;1122;-86
2022/07/14 09:58:25;119997.00;0.40;208.08;0.00;0.00;0.62;;;;;37.30;1.00;;;;;;2268141;61;1085;-85
2022/07/14 10:00:58;146742.00;0.49;254.19;0.00;0.00;0.62;;;;;37.60;1.00;;;;;;2268106;61;1266;-85
2022/07/14 10:03:29;279120.00;0.93;482.02;77413.00;0.26;134.57;;;;;38.10;1.00;;;;;;2268239;61;975;-85